Main page
METAR-TAF:

METAR-TAF

Airports :

Oil platform

Awg-1, Netherlands

latitude: 53-29-30N, longitude: 5-56-30E, elevation: 33 m

Current weather observation

The report was made 16 minutes ago, at 06:25 UTC
Wind 4 kt from the East, varying between East/Northeast and East/Southeast
Temperature 14°C
Humidity 72%
Pressure 1022 hPa
Few clouds at a height of 1800 ft

METAR: EHMA 200625Z AUTO 10004KT 060V120 //// // FEW018 14/09 Q1022 RE//

Time: 08:41 (06:41 UTC)


TAF: missing

Weather observations and forecasts of more than 4000 airports (METAR and TAF reports).

The available stations are represented by yellow and red dots on the map.

Hover mouse over dot to see the name of the station.

Then click to see weather observations and forecasts.

To change the map : click on the green buttons with a black cross to zoom in, on the green button with a dash to zoom out, or on the green arrows for adjacent maps.


METAR-TAF: